Time;durP1;ratioP1;P1;durP2;ratioP2;P2;SDS_P1;SDS_P2;PMS_P1;PMS_P2;Temp;Humidity;BMP_temperature;BMP_pressure;BME280_temperature;BME280_humidity;BME280_pressure;Samples;Min_cycle;Max_cycle;Signal;HPM_P1;HPM_P2
2022/04/21 00:00:44;;;;;;;13.45;9.25;;;;;;;;;;4997519;28;20217;-61
2022/04/21 00:03:09;;;;;;;15.07;9.88;;;;;;;;;;5002606;28;20486;-64
2022/04/21 00:05:35;;;;;;;14.90;9.95;;;;;;;;;;5002596;28;20021;-61
2022/04/21 00:08:00;;;;;;;12.18;9.40;;;;;;;;;;5000893;28;20060;-60
2022/04/21 00:10:26;;;;;;;12.90;9.50;;;;;;;;;;5000160;28;20055;-62
2022/04/21 00:12:52;;;;;;;13.88;9.70;;;;;;;;;;5000027;28;20440;-62
2022/04/21 00:15:18;;;;;;;15.65;9.93;;;;;;;;;;5002089;28;21071;-63
2022/04/21 00:17:43;;;;;;;15.63;10.73;;;;;;;;;;5001310;28;20124;-61
2022/04/21 00:20:09;;;;;;;14.25;9.35;;;;;;;;;;5002333;28;20025;-61
2022/04/21 00:25:18;;;;;;;11.30;8.63;;;;;;;;;;5008684;28;20275;-63
2022/04/21 00:27:45;;;;;;;13.93;8.88;;;;;;;;;;4999987;28;20062;-62
2022/04/21 00:30:11;;;;;;;12.50;7.90;;;;;;;;;;5011937;28;20031;-61
2022/04/21 00:32:37;;;;;;;11.38;7.75;;;;;;;;;;5001429;28;20609;-62
2022/04/21 00:35:06;;;;;;;11.35;7.53;;;;;;;;;;4999335;28;20021;-62
2022/04/21 00:37:31;;;;;;;12.13;7.30;;;;;;;;;;5001569;28;20685;-62
2022/04/21 00:39:57;;;;;;;9.95;7.35;;;;;;;;;;5001677;28;20029;-62
2022/04/21 00:42:22;;;;;;;12.40;7.78;;;;;;;;;;4999495;28;20060;-62
2022/04/21 00:44:49;;;;;;;9.27;6.90;;;;;;;;;;5016629;28;20029;-63
2022/04/21 00:47:15;;;;;;;11.57;7.40;;;;;;;;;;5001916;28;20097;-61
2022/04/21 00:49:40;;;;;;;13.55;8.27;;;;;;;;;;5000683;28;20057;-61
2022/04/21 00:52:07;;;;;;;12.77;7.97;;;;;;;;;;5001293;28;20201;-61
2022/04/21 00:54:32;;;;;;;10.77;7.63;;;;;;;;;;5001505;28;20029;-61
2022/04/21 00:57:01;;;;;;;11.57;8.00;;;;;;;;;;5001031;28;20025;-62
2022/04/21 00:59:27;;;;;;;11.55;7.78;;;;;;;;;;5000604;28;20073;-61
2022/04/21 01:04:39;;;;;;;12.60;8.35;;;;;;;;;;5001235;28;20082;-61
2022/04/21 01:07:11;;;;;;;13.73;8.77;;;;;;;;;;5000221;28;21709;-61
2022/04/21 01:09:39;;;;;;;14.32;8.68;;;;;;;;;;5008855;28;20025;-61
2022/04/21 01:12:11;;;;;;;12.10;8.50;;;;;;;;;;4999721;28;20124;-61
2022/04/21 01:14:39;;;;;;;;;;;;;;;;;;5001802;28;20121;-60
2022/04/21 01:17:05;;;;;;;14.20;8.85;;;;;;;;;;5000811;28;20018;-61
2022/04/21 01:19:31;;;;;;;14.38;9.05;;;;;;;;;;5000656;28;20183;-63
2022/04/21 01:21:59;;;;;;;12.27;9.02;;;;;;;;;;4998652;28;20026;-61
2022/04/21 01:24:29;;;;;;;12.65;8.57;;;;;;;;;;5000849;28;20570;-61
2022/04/21 01:26:55;;;;;;;12.52;8.98;;;;;;;;;;5001233;28;20056;-62
2022/04/21 01:29:23;;;;;;;13.18;8.45;;;;;;;;;;5001318;28;20154;-61
2022/04/21 01:31:51;;;;;;;16.35;9.20;;;;;;;;;;4998726;28;20025;-61
2022/04/21 01:34:17;;;;;;;14.23;9.00;;;;;;;;;;5000633;28;20033;-61
2022/04/21 01:42:14;;;;;;;13.18;9.20;;;;;;;;;;4999333;28;20029;-61
2022/04/21 01:44:39;;;;;;;13.65;9.10;;;;;;;;;;5000847;28;20067;-61
2022/04/21 01:47:05;;;;;;;13.95;9.10;;;;;;;;;;4998548;28;20833;-61
2022/04/21 01:49:30;;;;;;;14.60;9.23;;;;;;;;;;4997987;28;20029;-61
2022/04/21 01:51:57;;;;;;;14.98;9.57;;;;;;;;;;4999965;28;20499;-62
2022/04/21 01:54:23;;;;;;;12.50;9.30;;;;;;;;;;5013943;28;20140;-62
2022/04/21 01:56:48;;;;;;;15.45;9.18;;;;;;;;;;4999989;28;20037;-62
2022/04/21 01:59:13;;;;;;;14.25;9.57;;;;;;;;;;5010327;28;20248;-62
2022/04/21 02:01:39;;;;;;;12.75;8.80;;;;;;;;;;4999963;28;20111;-62
2022/04/21 02:04:04;;;;;;;14.40;9.63;;;;;;;;;;4999952;28;20037;-62
2022/04/21 02:06:29;;;;;;;12.77;9.50;;;;;;;;;;4999815;28;20634;-62
2022/04/21 02:08:55;;;;;;;15.23;10.18;;;;;;;;;;4998270;28;20025;-62
2022/04/21 02:11:20;;;;;;;13.90;9.65;;;;;;;;;;4999951;28;20726;-61
2022/04/21 02:13:46;;;;;;;15.70;10.00;;;;;;;;;;4999572;28;22401;-62
2022/04/21 02:16:16;;;;;;;15.23;9.85;;;;;;;;;;5009217;28;20067;-62
2022/04/21 02:18:43;;;;;;;14.00;9.82;;;;;;;;;;5000577;28;20216;-61
2022/04/21 02:21:11;;;;;;;13.75;9.70;;;;;;;;;;5000025;28;20075;-62
2022/04/21 02:23:38;;;;;;;14.07;9.63;;;;;;;;;;4999144;28;20516;-62
2022/04/21 02:26:06;;;;;;;16.42;10.55;;;;;;;;;;4999271;28;20132;-61
2022/04/21 02:28:31;;;;;;;13.35;9.52;;;;;;;;;;4998315;28;20037;-62
2022/04/21 02:30:58;;;;;;;18.63;10.48;;;;;;;;;;4999994;28;20238;-61
2022/04/21 02:33:24;;;;;;;15.60;10.05;;;;;;;;;;4999776;28;20033;-61
2022/04/21 02:35:50;;;;;;;16.60;10.30;;;;;;;;;;4999023;28;20213;-61
2022/04/21 02:38:17;;;;;;;17.85;10.25;;;;;;;;;;4999799;28;20215;-61
2022/04/21 02:40:45;;;;;;;15.15;11.13;;;;;;;;;;5000127;28;20513;-61
2022/04/21 02:43:10;;;;;;;17.13;11.27;;;;;;;;;;4999833;28;20443;-61
2022/04/21 02:45:36;;;;;;;15.80;11.13;;;;;;;;;;5014262;28;20029;-61
2022/04/21 02:48:01;;;;;;;16.38;11.10;;;;;;;;;;5008296;28;20052;-62
2022/04/21 02:50:26;;;;;;;16.83;10.25;;;;;;;;;;5014800;28;20363;-61
2022/04/21 02:52:53;;;;;;;17.15;10.68;;;;;;;;;;5008991;28;20047;-61
2022/04/21 02:58:02;;;;;;;16.17;11.15;;;;;;;;;;4999096;28;20071;-62
2022/04/21 03:00:28;;;;;;;15.30;10.52;;;;;;;;;;5014106;28;20562;-62
2022/04/21 03:02:58;;;;;;;17.17;11.05;;;;;;;;;;4999734;28;20025;-62
2022/04/21 03:05:42;;;;;;;17.35;11.15;;;;;;;;;;5014448;28;20188;-62
2022/04/21 03:08:07;;;;;;;16.98;10.77;;;;;;;;;;5014963;28;20045;-61
2022/04/21 03:10:33;;;;;;;14.77;10.50;;;;;;;;;;5014842;28;20436;-61
2022/04/21 03:12:58;;;;;;;20.92;11.77;;;;;;;;;;5015261;28;20060;-62
2022/04/21 03:15:24;;;;;;;17.10;11.23;;;;;;;;;;5015453;28;20093;-62
2022/04/21 03:17:49;;;;;;;16.77;11.05;;;;;;;;;;4999565;28;20121;-61
2022/04/21 03:25:44;;;;;;;17.35;11.25;;;;;;;;;;5001030;28;20390;-61
2022/04/21 03:28:10;;;;;;;15.93;10.98;;;;;;;;;;5014796;28;20040;-61
2022/04/21 03:30:35;;;;;;;15.25;10.80;;;;;;;;;;5014561;28;20966;-61
2022/04/21 03:33:01;;;;;;;15.52;10.75;;;;;;;;;;5014920;28;20556;-63
2022/04/21 03:35:26;;;;;;;16.23;11.52;;;;;;;;;;5003647;28;20112;-62
2022/04/21 03:37:52;;;;;;;15.38;11.02;;;;;;;;;;5008147;28;20112;-61
2022/04/21 03:40:17;;;;;;;18.00;11.38;;;;;;;;;;5002201;28;20430;-61
2022/04/21 03:42:43;;;;;;;15.48;11.63;;;;;;;;;;5002861;28;20040;-62
2022/04/21 03:45:08;;;;;;;16.52;10.60;;;;;;;;;;5001651;28;20861;-61
2022/04/21 03:47:34;;;;;;;16.40;11.35;;;;;;;;;;5000436;28;20183;-61
2022/04/21 03:49:59;;;;;;;18.15;10.95;;;;;;;;;;5002121;28;20804;-61
2022/04/21 03:52:26;;;;;;;16.90;11.60;;;;;;;;;;5002812;28;20132;-62
2022/04/21 03:54:52;;;;;;;17.98;11.68;;;;;;;;;;5002069;28;20391;-61
2022/04/21 03:57:17;;;;;;;15.95;10.90;;;;;;;;;;5001956;28;20524;-61
2022/04/21 03:59:44;;;;;;;17.27;11.38;;;;;;;;;;5001153;28;20029;-61
2022/04/21 04:02:10;;;;;;;18.98;11.07;;;;;;;;;;5001154;28;20721;-61
2022/04/21 04:04:36;;;;;;;16.30;11.15;;;;;;;;;;4999893;28;20252;-61
2022/04/21 04:12:33;;;;;;;17.67;12.13;;;;;;;;;;5007648;28;20709;-61
2022/04/21 04:14:59;;;;;;;15.80;10.90;;;;;;;;;;5001956;28;20084;-61
2022/04/21 04:17:24;;;;;;;18.55;11.93;;;;;;;;;;5002404;28;20110;-61
2022/04/21 04:19:52;;;;;;;15.25;10.55;;;;;;;;;;5002090;28;20475;-60
2022/04/21 04:22:17;;;;;;;16.83;11.43;;;;;;;;;;5001653;28;20426;-61
2022/04/21 04:24:45;;;;;;;15.95;11.20;;;;;;;;;;4999883;28;20368;-61
2022/04/21 04:27:12;;;;;;;16.50;11.30;;;;;;;;;;5002435;28;20076;-61
2022/04/21 04:29:38;;;;;;;15.85;11.45;;;;;;;;;;5002762;28;20120;-61
2022/04/21 04:32:03;;;;;;;17.33;11.70;;;;;;;;;;5001865;28;20055;-61
2022/04/21 04:34:31;;;;;;;17.90;12.18;;;;;;;;;;5001737;28;20115;-61
2022/04/21 04:36:57;;;;;;;16.15;11.77;;;;;;;;;;5001166;28;20273;-61
2022/04/21 04:39:22;;;;;;;16.73;12.38;;;;;;;;;;5002868;28;20029;-61
2022/04/21 04:44:32;;;;;;;19.33;11.77;;;;;;;;;;5013518;28;20316;-61
2022/04/21 04:46:57;;;;;;;16.85;11.35;;;;;;;;;;5000623;28;20036;-61
2022/04/21 04:49:23;;;;;;;17.15;10.63;;;;;;;;;;5001088;28;20332;-61
2022/04/21 04:51:48;;;;;;;17.60;11.77;;;;;;;;;;5002347;28;20036;-61
2022/04/21 04:54:16;;;;;;;17.50;11.95;;;;;;;;;;4999083;28;20036;-61
2022/04/21 04:56:44;;;;;;;15.57;11.82;;;;;;;;;;5001358;28;20547;-62
2022/04/21 04:59:10;;;;;;;15.27;11.23;;;;;;;;;;4999540;28;20233;-62
2022/04/21 05:01:42;;;;;;;15.68;11.13;;;;;;;;;;5002009;28;20790;-62
2022/04/21 05:04:10;;;;;;;18.13;11.45;;;;;;;;;;5016161;28;20485;-63
2022/04/21 05:06:39;;;;;;;16.48;10.55;;;;;;;;;;5015444;28;20162;-63
2022/04/21 05:09:06;;;;;;;14.45;10.52;;;;;;;;;;5000824;28;20065;-61
2022/04/21 05:11:32;;;;;;;20.33;10.80;;;;;;;;;;5000698;28;20090;-61
2022/04/21 05:13:57;;;;;;;16.45;10.60;;;;;;;;;;5000526;28;20355;-61
2022/04/21 05:16:25;;;;;;;15.60;10.95;;;;;;;;;;5001994;28;20057;-61
2022/04/21 05:18:50;;;;;;;17.08;10.75;;;;;;;;;;4999365;28;20042;-61
2022/04/21 05:21:17;;;;;;;13.98;10.63;;;;;;;;;;5000923;28;20758;-61
2022/04/21 05:23:46;;;;;;;14.05;10.75;;;;;;;;;;5003439;28;20032;-61
2022/04/21 05:26:12;;;;;;;13.90;9.98;;;;;;;;;;5000144;28;20070;-61
2022/04/21 05:28:39;;;;;;;12.88;10.02;;;;;;;;;;5004148;28;20032;-61
2022/04/21 05:31:05;;;;;;;12.75;9.57;;;;;;;;;;5001123;28;22156;-62
2022/04/21 05:33:30;;;;;;;13.82;9.40;;;;;;;;;;4998936;28;20806;-62
2022/04/21 05:35:57;;;;;;;12.57;9.70;;;;;;;;;;5016070;28;20420;-62
2022/04/21 05:38:23;;;;;;;13.43;9.65;;;;;;;;;;5001011;28;20041;-62
2022/04/21 05:40:49;;;;;;;15.35;9.60;;;;;;;;;;4998937;28;20036;-62
2022/04/21 05:43:18;;;;;;;14.65;9.88;;;;;;;;;;4998171;28;20027;-62
2022/04/21 05:45:44;;;;;;;13.20;9.98;;;;;;;;;;4999211;28;20377;-62
2022/04/21 05:48:12;;;;;;;15.02;9.63;;;;;;;;;;4998239;28;20304;-62
2022/04/21 05:50:37;;;;;;;13.23;9.18;;;;;;;;;;4981127;28;20741;-62
2022/04/21 05:53:03;;;;;;;14.02;10.07;;;;;;;;;;4999705;28;20272;-61
2022/04/21 05:55:33;;;;;;;13.27;9.30;;;;;;;;;;5000368;28;20321;-62
2022/04/21 05:57:59;;;;;;;16.60;10.00;;;;;;;;;;5000443;28;20088;-61
2022/04/21 06:00:25;;;;;;;14.68;10.13;;;;;;;;;;4999680;28;20064;-61
2022/04/21 06:02:50;;;;;;;13.13;9.57;;;;;;;;;;5000563;28;20448;-61
2022/04/21 06:05:15;;;;;;;14.75;9.65;;;;;;;;;;4998262;28;20359;-61
2022/04/21 06:07:41;;;;;;;16.67;10.10;;;;;;;;;;4998084;28;20161;-62
2022/04/21 06:10:06;;;;;;;14.63;10.00;;;;;;;;;;4999516;28;20028;-62
2022/04/21 06:12:33;;;;;;;13.18;9.90;;;;;;;;;;5000124;28;20112;-61
2022/04/21 06:14:58;;;;;;;12.43;9.82;;;;;;;;;;4998572;28;21239;-62
2022/04/21 06:17:25;;;;;;;14.75;9.77;;;;;;;;;;4998585;28;20041;-61
2022/04/21 06:19:50;;;;;;;13.38;9.88;;;;;;;;;;4998584;28;20208;-61
2022/04/21 06:22:18;;;;;;;14.40;9.70;;;;;;;;;;4998788;28;20037;-63
2022/04/21 06:24:44;;;;;;;19.27;9.52;;;;;;;;;;4996837;28;20130;-62
2022/04/21 06:27:09;;;;;;;12.00;9.63;;;;;;;;;;4990036;28;20215;-62
2022/04/21 06:29:35;;;;;;;14.63;9.05;;;;;;;;;;4998252;28;20619;-62
2022/04/21 06:32:01;;;;;;;12.88;9.13;;;;;;;;;;4998889;28;20579;-62
2022/04/21 06:34:32;;;;;;;14.00;9.00;;;;;;;;;;5000276;28;20304;-62
2022/04/21 06:37:01;;;;;;;13.40;8.90;;;;;;;;;;4998621;28;20360;-62
2022/04/21 06:39:31;;;;;;;12.38;8.20;;;;;;;;;;4999072;28;20153;-63
2022/04/21 06:41:57;;;;;;;11.07;7.25;;;;;;;;;;5013579;28;20213;-62
2022/04/21 06:48:06;;;;;;;8.55;6.85;;;;;;;;;;4998378;28;20135;-61
2022/04/21 06:50:01;;;;;;;10.50;7.40;;;;;;;;;;4999314;28;20610;-62
2022/04/21 06:52:29;;;;;;;10.88;6.57;;;;;;;;;;4999069;28;20846;-62
2022/04/21 06:54:57;;;;;;;10.23;6.72;;;;;;;;;;4999019;28;20021;-63
2022/04/21 06:57:25;;;;;;;9.63;7.28;;;;;;;;;;5014330;28;20489;-62
2022/04/21 06:59:51;;;;;;;9.63;6.38;;;;;;;;;;4999988;28;20628;-61
2022/04/21 07:02:16;;;;;;;8.35;6.50;;;;;;;;;;4997538;28;20045;-63
2022/04/21 07:04:42;;;;;;;9.65;7.38;;;;;;;;;;5000164;28;20403;-62
2022/04/21 07:07:07;;;;;;;8.60;6.78;;;;;;;;;;5000387;28;20333;-62
2022/04/21 07:09:33;;;;;;;8.15;6.30;;;;;;;;;;4999459;28;20476;-61
2022/04/21 07:11:59;;;;;;;8.63;6.78;;;;;;;;;;5012673;28;20039;-62
2022/04/21 07:14:24;;;;;;;11.60;7.15;;;;;;;;;;5005168;28;20064;-63
2022/04/21 07:16:49;;;;;;;10.23;6.78;;;;;;;;;;5008302;28;20114;-61
2022/04/21 07:19:14;;;;;;;9.20;6.93;;;;;;;;;;5004487;28;20128;-61
2022/04/21 07:21:40;;;;;;;10.35;6.80;;;;;;;;;;5005472;28;20056;-62
2022/04/21 07:24:05;;;;;;;9.43;7.03;;;;;;;;;;5006301;28;20053;-61
2022/04/21 07:26:30;;;;;;;10.25;6.70;;;;;;;;;;5007413;28;20045;-61
2022/04/21 07:28:57;;;;;;;8.52;6.50;;;;;;;;;;5008780;28;20040;-62
2022/04/21 07:31:22;;;;;;;6.95;6.20;;;;;;;;;;5008173;28;20025;-61
2022/04/21 07:33:47;;;;;;;7.80;6.28;;;;;;;;;;5008767;28;20036;-62
2022/04/21 07:36:12;;;;;;;10.80;6.75;;;;;;;;;;5007584;28;20040;-66
2022/04/21 07:38:38;;;;;;;8.90;6.47;;;;;;;;;;4989429;28;20033;-67
2022/04/21 07:41:03;;;;;;;8.82;6.30;;;;;;;;;;5004954;28;20095;-67
2022/04/21 07:43:32;;;;;;;10.10;6.35;;;;;;;;;;5008118;28;20040;-67
2022/04/21 07:45:59;;;;;;;8.30;6.63;;;;;;;;;;5007995;28;20025;-67
2022/04/21 07:49:44;;;;;;;10.57;7.05;;;;;;;;;;5019452;28;20033;-62
2022/04/21 07:51:10;;;;;;;9.85;6.60;;;;;;;;;;5006152;28;20025;-62
2022/04/21 07:53:35;;;;;;;9.68;6.82;;;;;;;;;;5002242;28;20035;-62
2022/04/21 07:56:00;;;;;;;8.88;6.32;;;;;;;;;;5001833;28;20306;-62
2022/04/21 07:58:28;;;;;;;9.15;6.68;;;;;;;;;;5002484;28;20036;-62
2022/04/21 08:00:56;;;;;;;8.15;6.18;;;;;;;;;;5003634;28;20056;-62
2022/04/21 08:03:22;;;;;;;10.55;5.88;;;;;;;;;;5001252;28;20028;-61
2022/04/21 08:05:47;;;;;;;7.95;6.00;;;;;;;;;;4999432;28;20041;-62
2022/04/21 08:08:13;;;;;;;6.53;5.82;;;;;;;;;;5002644;28;20037;-62
2022/04/21 08:10:38;;;;;;;8.35;6.32;;;;;;;;;;5002704;28;20267;-63
2022/04/21 08:13:06;;;;;;;8.30;6.13;;;;;;;;;;5002450;28;20025;-62
2022/04/21 08:15:33;;;;;;;7.57;6.13;;;;;;;;;;5018183;28;20232;-61
2022/04/21 08:18:00;;;;;;;9.13;6.30;;;;;;;;;;5002239;28;20025;-63
2022/04/21 08:20:26;;;;;;;9.40;6.35;;;;;;;;;;5000176;28;20480;-62
2022/04/21 08:22:53;;;;;;;8.70;6.18;;;;;;;;;;5000401;28;20037;-62
2022/04/21 08:33:32;;;;;;;8.77;6.70;;;;;;;;;;5010684;28;20582;-62
2022/04/21 08:35:58;;;;;;;8.75;6.22;;;;;;;;;;4998787;28;20033;-63
2022/04/21 08:38:24;;;;;;;9.20;6.38;;;;;;;;;;4999445;28;21956;-62
2022/04/21 08:40:54;;;;;;;9.68;6.30;;;;;;;;;;5001714;28;20033;-62
2022/04/21 08:43:20;;;;;;;8.85;6.45;;;;;;;;;;4999486;28;20101;-63
2022/04/21 08:45:46;;;;;;;8.93;5.80;;;;;;;;;;5002186;28;20269;-62
2022/04/21 08:48:13;;;;;;;7.40;5.88;;;;;;;;;;5000718;28;20928;-62
2022/04/21 08:50:39;;;;;;;9.68;5.18;;;;;;;;;;4995302;28;20487;-63
2022/04/21 08:53:08;;;;;;;7.38;5.20;;;;;;;;;;5014485;28;20737;-63
2022/04/21 08:55:34;;;;;;;8.40;5.57;;;;;;;;;;4999567;28;20029;-63
2022/04/21 08:58:00;;;;;;;7.13;5.45;;;;;;;;;;5002205;28;20040;-63
2022/04/21 09:00:26;;;;;;;7.45;5.28;;;;;;;;;;5001435;28;20476;-63
2022/04/21 09:02:53;;;;;;;6.32;5.15;;;;;;;;;;4999347;28;20045;-61
2022/04/21 09:05:20;;;;;;;7.57;4.60;;;;;;;;;;5001000;28;20133;-66
2022/04/21 09:07:46;;;;;;;6.35;4.40;;;;;;;;;;5002125;28;20039;-65
2022/04/21 09:10:13;;;;;;;5.95;4.13;;;;;;;;;;5002173;28;20166;-63
2022/04/21 09:12:48;;;;;;;4.82;3.63;;;;;;;;;;5000498;28;20025;-63
2022/04/21 09:15:15;;;;;;;4.97;3.20;;;;;;;;;;5001979;28;20630;-63
2022/04/21 09:17:41;;;;;;;3.70;2.88;;;;;;;;;;5000848;28;20555;-64
2022/04/21 09:20:11;;;;;;;5.63;3.40;;;;;;;;;;5001071;28;20469;-63
2022/04/21 09:22:39;;;;;;;5.85;3.35;;;;;;;;;;4997756;28;20026;-63
2022/04/21 09:25:04;;;;;;;6.75;3.75;;;;;;;;;;5000541;28;20043;-62
2022/04/21 09:27:56;;;;;;;5.28;3.75;;;;;;;;;;5000469;28;20128;-62
2022/04/21 09:30:24;;;;;;;7.75;3.95;;;;;;;;;;5000597;28;20036;-64
2022/04/21 09:32:54;;;;;;;6.60;4.45;;;;;;;;;;5000401;28;20037;-65
2022/04/21 09:35:20;;;;;;;4.82;3.53;;;;;;;;;;5001560;28;20037;-64
2022/04/21 09:37:52;;;;;;;4.65;3.35;;;;;;;;;;4999287;28;20205;-63
2022/04/21 09:40:21;;;;;;;6.32;4.22;;;;;;;;;;4998019;28;20752;-63
2022/04/21 09:43:00;;;;;;;6.45;3.65;;;;;;;;;;5000510;28;20043;-62
2022/04/21 09:48:10;;;;;;;4.65;3.70;;;;;;;;;;4994422;28;20025;-63
2022/04/21 09:50:39;;;;;;;5.65;3.80;;;;;;;;;;5000922;28;20079;-62
2022/04/21 09:53:04;;;;;;;5.50;3.67;;;;;;;;;;4999108;28;20041;-62
2022/04/21 09:55:32;;;;;;;9.38;4.18;;;;;;;;;;4999957;28;20029;-63
2022/04/21 09:58:05;;;;;;;5.35;3.58;;;;;;;;;;4996800;28;20249;-63
2022/04/21 10:00:31;;;;;;;5.65;3.70;;;;;;;;;;4996341;28;20027;-62
2022/04/21 10:02:57;;;;;;;6.43;3.85;;;;;;;;;;4993117;28;20417;-63
2022/04/21 10:05:23;;;;;;;5.63;3.72;;;;;;;;;;4997607;28;20296;-62
2022/04/21 10:07:49;;;;;;;4.65;3.65;;;;;;;;;;4997797;28;21763;-65
2022/04/21 10:10:15;;;;;;;7.25;3.67;;;;;;;;;;5000870;28;20213;-63
2022/04/21 10:12:41;;;;;;;9.15;3.80;;;;;;;;;;4991731;28;20124;-62
2022/04/21 10:15:09;;;;;;;6.05;4.07;;;;;;;;;;4995661;28;20036;-62
2022/04/21 10:17:35;;;;;;;6.28;4.40;;;;;;;;;;4996181;28;20150;-63
2022/04/21 10:20:01;;;;;;;8.40;4.72;;;;;;;;;;4998313;28;20358;-62
2022/04/21 10:22:31;;;;;;;8.15;4.57;;;;;;;;;;4993678;28;20150;-63
2022/04/21 10:24:57;;;;;;;5.38;4.10;;;;;;;;;;4999480;28;20586;-63
2022/04/21 10:27:35;;;;;;;6.05;3.58;;;;;;;;;;4999446;28;20591;-62
2022/04/21 10:30:10;;;;;;;8.02;4.45;;;;;;;;;;4998003;28;20186;-62
2022/04/21 10:32:45;;;;;;;6.13;4.50;;;;;;;;;;4998456;28;20048;-63
2022/04/21 10:35:36;;;;;;;7.25;3.95;;;;;;;;;;4999108;28;20164;-63
2022/04/21 10:38:14;;;;;;;7.38;4.07;;;;;;;;;;5012143;28;20041;-63
2022/04/21 10:40:55;;;;;;;5.93;4.30;;;;;;;;;;4998614;28;20285;-62
2022/04/21 10:43:20;;;;;;;8.10;3.80;;;;;;;;;;4997617;28;20124;-62
2022/04/21 10:46:01;;;;;;;8.00;3.90;;;;;;;;;;4980326;28;20519;-61
2022/04/21 10:48:40;;;;;;;7.78;3.83;;;;;;;;;;4997973;28;20040;-62
2022/04/21 10:51:08;;;;;;;8.68;3.85;;;;;;;;;;4997472;28;20504;-62
2022/04/21 10:59:24;;;;;;;8.07;3.78;;;;;;;;;;5013029;28;20116;-62
2022/04/21 11:01:53;;;;;;;8.55;3.63;;;;;;;;;;4997652;28;20614;-69
2022/04/21 11:04:19;;;;;;;8.68;3.70;;;;;;;;;;4986756;28;20270;-70
2022/04/21 11:06:46;;;;;;;6.38;3.78;;;;;;;;;;4997290;28;20494;-67
2022/04/21 11:09:46;;;;;;;7.40;3.90;;;;;;;;;;4998946;28;20028;-70
2022/04/21 11:12:14;;;;;;;4.88;3.22;;;;;;;;;;5001692;28;20330;-68
2022/04/21 11:14:44;;;;;;;6.97;3.60;;;;;;;;;;4999627;28;20551;-69
2022/04/21 11:17:17;;;;;;;4.45;3.50;;;;;;;;;;4998857;28;20485;-68
2022/04/21 11:19:51;;;;;;;5.10;3.85;;;;;;;;;;4997382;28;20488;-72
2022/04/21 11:22:39;;;;;;;6.93;3.78;;;;;;;;;;4997196;28;20533;-69
2022/04/21 11:25:05;;;;;;;8.07;3.60;;;;;;;;;;4998577;28;20037;-71
2022/04/21 11:27:32;;;;;;;4.32;3.70;;;;;;;;;;4999555;28;20213;-68
2022/04/21 11:29:58;;;;;;;6.03;3.92;;;;;;;;;;4998159;28;20057;-70
2022/04/21 11:32:23;;;;;;;7.03;3.90;;;;;;;;;;4998818;28;20426;-72
2022/04/21 11:34:58;;;;;;;6.00;3.67;;;;;;;;;;5006776;28;20052;-68
2022/04/21 11:37:24;;;;;;;7.22;3.60;;;;;;;;;;4997988;28;20053;-71
2022/04/21 11:39:49;;;;;;;5.47;4.00;;;;;;;;;;4997831;28;20039;-70
2022/04/21 11:42:27;;;;;;;4.60;3.55;;;;;;;;;;4998515;28;20040;-69
2022/04/21 11:44:53;;;;;;;8.10;3.75;;;;;;;;;;4998898;28;20595;-68
2022/04/21 11:47:19;;;;;;;5.22;3.60;;;;;;;;;;4999182;28;20029;-69
2022/04/21 11:50:00;;;;;;;4.95;3.30;;;;;;;;;;4996805;28;20048;-69
2022/04/21 11:52:28;;;;;;;6.68;3.40;;;;;;;;;;4995798;28;20083;-71
2022/04/21 11:55:04;;;;;;;7.07;3.60;;;;;;;;;;4998443;28;20147;-70
2022/04/21 11:57:40;;;;;;;6.15;3.20;;;;;;;;;;5015400;28;20055;-69
2022/04/21 12:00:05;;;;;;;6.53;3.28;;;;;;;;;;5001621;28;20437;-68
2022/04/21 12:08:03;;;;;;;5.32;3.45;;;;;;;;;;4990665;28;20528;-69
2022/04/21 12:10:29;;;;;;;6.20;3.65;;;;;;;;;;5016997;28;20458;-68
2022/04/21 12:12:54;;;;;;;5.53;3.22;;;;;;;;;;4999431;28;20026;-68
2022/04/21 12:15:29;;;;;;;3.92;2.90;;;;;;;;;;5003797;28;20033;-68
2022/04/21 12:18:01;;;;;;;4.45;3.30;;;;;;;;;;5001401;28;20456;-67
2022/04/21 12:20:28;;;;;;;4.32;3.33;;;;;;;;;;5014347;28;20527;-71
2022/04/21 12:22:55;;;;;;;6.13;3.38;;;;;;;;;;5000903;28;20025;-69
2022/04/21 12:25:28;;;;;;;7.40;3.42;;;;;;;;;;5002178;28;20064;-71
2022/04/21 12:27:53;;;;;;;7.35;3.50;;;;;;;;;;5001350;28;21695;-72
2022/04/21 12:30:20;;;;;;;4.60;3.47;;;;;;;;;;5002599;28;20028;-71
2022/04/21 12:32:46;;;;;;;8.48;3.45;;;;;;;;;;4999561;28;20676;-72
2022/04/21 12:35:11;;;;;;;8.30;3.35;;;;;;;;;;5001814;28;20025;-73
2022/04/21 12:40:48;;;;;;;7.68;2.95;;;;;;;;;;4974261;28;20505;-72
2022/04/21 12:43:16;;;;;;;4.93;3.10;;;;;;;;;;4999194;28;20153;-72
2022/04/21 12:45:43;;;;;;;5.30;3.22;;;;;;;;;;5002264;28;20577;-75
2022/04/21 12:48:25;;;;;;;7.35;3.50;;;;;;;;;;5001793;28;20103;-72
2022/04/21 12:50:56;;;;;;;5.00;3.00;;;;;;;;;;5003367;28;20621;-71
2022/04/21 12:53:29;;;;;;;5.03;2.65;;;;;;;;;;5000635;28;20032;-72
2022/04/21 12:55:55;;;;;;;9.63;3.30;;;;;;;;;;5000938;28;20413;-72
2022/04/21 12:58:31;;;;;;;4.72;2.78;;;;;;;;;;5001892;28;20572;-69
2022/04/21 13:01:02;;;;;;;5.95;2.72;;;;;;;;;;5015997;28;20809;-69
2022/04/21 13:03:28;;;;;;;4.65;2.92;;;;;;;;;;5000119;28;20780;-69
2022/04/21 13:05:55;;;;;;;4.57;3.28;;;;;;;;;;5001340;28;20025;-72
2022/04/21 13:08:21;;;;;;;5.40;2.83;;;;;;;;;;5000295;28;20035;-70
2022/04/21 13:10:47;;;;;;;6.38;2.75;;;;;;;;;;5001122;28;21991;-70
2022/04/21 13:13:15;;;;;;;3.47;2.55;;;;;;;;;;4999635;28;20053;-70
2022/04/21 13:15:41;;;;;;;7.18;3.05;;;;;;;;;;5008183;28;20382;-68
2022/04/21 13:18:08;;;;;;;6.78;3.03;;;;;;;;;;5000043;28;20384;-67
2022/04/21 13:23:18;;;;;;;4.80;2.90;;;;;;;;;;5000769;28;21935;-67
2022/04/21 13:25:46;;;;;;;4.75;2.90;;;;;;;;;;5000642;28;20522;-68
2022/04/21 13:28:13;;;;;;;5.22;2.88;;;;;;;;;;5001266;28;20052;-69
2022/04/21 13:30:39;;;;;;;7.43;2.58;;;;;;;;;;5001910;28;20527;-67
2022/04/21 13:33:25;;;;;;;3.50;2.45;;;;;;;;;;5001271;28;20297;-68
2022/04/21 13:35:50;;;;;;;5.88;2.90;;;;;;;;;;5001341;28;20029;-69
2022/04/21 13:38:16;;;;;;;4.68;3.08;;;;;;;;;;5000579;28;20748;-68
2022/04/21 13:40:42;;;;;;;5.80;3.10;;;;;;;;;;5016082;28;20447;-67
2022/04/21 13:43:08;;;;;;;6.03;2.60;;;;;;;;;;5001404;28;20037;-68
2022/04/21 13:45:35;;;;;;;6.00;3.08;;;;;;;;;;5000987;28;21872;-67
2022/04/21 13:48:01;;;;;;;7.90;3.00;;;;;;;;;;5001076;28;20155;-67
2022/04/21 13:50:27;;;;;;;3.63;2.60;;;;;;;;;;5000521;28;20579;-67
2022/04/21 13:52:53;;;;;;;4.38;2.65;;;;;;;;;;5000620;28;20029;-69
2022/04/21 13:55:18;;;;;;;3.65;2.50;;;;;;;;;;5000882;28;20052;-69
2022/04/21 13:57:43;;;;;;;5.95;2.63;;;;;;;;;;4999845;28;20533;-68
2022/04/21 14:00:12;;;;;;;4.60;2.75;;;;;;;;;;4998096;28;20449;-68
2022/04/21 14:02:37;;;;;;;6.68;2.60;;;;;;;;;;4999651;28;20163;-69
2022/04/21 14:05:07;;;;;;;7.13;2.85;;;;;;;;;;4999303;28;20215;-68
2022/04/21 14:07:33;;;;;;;7.43;2.92;;;;;;;;;;5000301;28;20741;-69
2022/04/21 14:09:58;;;;;;;5.97;2.70;;;;;;;;;;4999999;28;20061;-68
2022/04/21 14:12:23;;;;;;;4.35;2.60;;;;;;;;;;5000883;28;20025;-68
2022/04/21 14:14:48;;;;;;;6.75;2.67;;;;;;;;;;5001790;28;20033;-68
2022/04/21 14:17:15;;;;;;;5.47;2.80;;;;;;;;;;5001667;28;20589;-69
2022/04/21 14:19:40;;;;;;;4.07;2.88;;;;;;;;;;5000653;28;20039;-68
2022/04/21 14:22:05;;;;;;;5.57;2.70;;;;;;;;;;5011081;28;20209;-72
2022/04/21 14:24:31;;;;;;;3.42;2.58;;;;;;;;;;5000560;28;20036;-67
2022/04/21 14:26:57;;;;;;;3.08;2.58;;;;;;;;;;5003171;28;20732;-71
2022/04/21 14:29:23;;;;;;;4.40;2.70;;;;;;;;;;5003430;28;20037;-70
2022/04/21 14:31:48;;;;;;;5.55;3.00;;;;;;;;;;5004118;28;20913;-69
2022/04/21 14:34:14;;;;;;;5.55;2.70;;;;;;;;;;5001911;28;20021;-68
2022/04/21 14:36:39;;;;;;;5.63;2.90;;;;;;;;;;5001911;28;20202;-68
2022/04/21 14:44:32;;;;;;;4.40;2.72;;;;;;;;;;5001832;28;20057;-72
2022/04/21 14:46:58;;;;;;;4.13;2.78;;;;;;;;;;4999305;28;20170;-72
2022/04/21 14:49:23;;;;;;;5.57;2.70;;;;;;;;;;5014663;28;20413;-68
2022/04/21 14:51:48;;;;;;;5.93;2.55;;;;;;;;;;5014525;28;20740;-69
2022/04/21 14:54:14;;;;;;;3.60;2.50;;;;;;;;;;4998972;28;20197;-67
2022/04/21 14:56:43;;;;;;;4.50;2.95;;;;;;;;;;4999408;28;20053;-68
2022/04/21 14:59:11;;;;;;;3.47;2.60;;;;;;;;;;5012314;28;20033;-68
2022/04/21 15:01:38;;;;;;;5.20;3.00;;;;;;;;;;4999078;28;20038;-68
2022/04/21 15:04:04;;;;;;;5.13;2.40;;;;;;;;;;4998022;28;20029;-68
2022/04/21 15:06:29;;;;;;;5.03;2.95;;;;;;;;;;4998453;28;20708;-68
2022/04/21 15:08:55;;;;;;;5.00;2.63;;;;;;;;;;4999576;28;20099;-68
2022/04/21 15:11:20;;;;;;;5.20;2.88;;;;;;;;;;4999223;28;20032;-67
2022/04/21 15:13:45;;;;;;;3.75;2.45;;;;;;;;;;4997594;28;20029;-68
2022/04/21 15:16:11;;;;;;;5.75;3.05;;;;;;;;;;4998535;28;20439;-70
2022/04/21 15:18:36;;;;;;;5.50;3.40;;;;;;;;;;4998896;28;20071;-68
2022/04/21 15:21:02;;;;;;;8.52;2.90;;;;;;;;;;4998778;28;20327;-67
2022/04/21 15:23:27;;;;;;;6.45;3.00;;;;;;;;;;4997576;28;20029;-68
2022/04/21 15:25:53;;;;;;;5.28;2.90;;;;;;;;;;4998446;28;20063;-67
2022/04/21 15:28:18;;;;;;;4.90;3.17;;;;;;;;;;4997618;28;20049;-67
2022/04/21 15:30:43;;;;;;;6.70;3.20;;;;;;;;;;5012880;28;20522;-67
2022/04/21 15:33:12;;;;;;;6.00;3.15;;;;;;;;;;5002171;28;20175;-67
2022/04/21 15:35:41;;;;;;;7.13;2.92;;;;;;;;;;5001727;28;20153;-62
2022/04/21 15:38:12;;;;;;;6.28;3.38;;;;;;;;;;5001893;28;20106;-61